Richmond, MN (56368)

9:05 AM CDT on September 20, 2014 (GMT -0500)
North of Kimball | Change Station
CLOSE
Current Station
Personal Weather Station
Location: Kimball, MN
Elevation: 1260 ft
Nearby Weather Stations

Elev 1260 ft 45.35 °N, 94.34 °W | Updated 1 second ago

Partly Cloudy
Partly Cloudy
61.0 °F
Feels Like 61.0 °F
N
1.0
Wind Variable Wind from North
Gusts 8.0 mph

Today
High -- | Low -- °F
--% Chance of Precip.
Yesterday
High -- | Low -- °F
Precip. -- in
7:02 AM 7:19 PM
Waning Crescent, 12% visible
Pressure 29.83 in
Visibility 7.0 miles
Clouds Scattered Clouds 500 ft
Dew Point 58 °F
Humidity 90%
Rainfall 0.00 in
Snow Depth Not available.
UV 1 out of 12
Pollen 2.10 out of 12
Air Quality Not available.
Flu Activity Not available.
METAR KPEX 201354Z AUTO 24010KT 7SM SCT005 14/13 A2983 RMK AO2 T01350132

More Conditions Fewer Conditions

Pressure 29.83 in
Visibility 7.0 miles
Clouds Scattered Clouds 500 ft
Dew Point 58 °F
Humidity 90%
Rainfall 0.00 in
Snow Depth Not available.
UV 1 out of 12
Pollen 2.10 out of 12
Air Quality Not available.
Flu Activity Not available.
METAR KPEX 201354Z AUTO 24010KT 7SM SCT005 14/13 A2983 RMK AO2 T01350132

More Conditions Fewer Conditions

10-Day Weather Forecast

Almanac

Astronomy

Sep. 20, 2014 Rise Set
Actual Time 7:02 AM CDT 7:19 PM CDT
Civil Twilight 6:33 AM CDT 7:48 PM CDT
Nautical Twilight 5:58 AM CDT 8:23 PM CDT
Astronomical Twilight 5:22 AM CDT 8:59 PM CDT
Moon 3:34 AM CDT 5:29 PM CDT
Length of Visible Light 13h 15m
Length of Day
12h 16m
Tomorrow will be 3m 10s shorter.
Waning Crescent, 12% of the Moon is Illuminated
Today
Waning Crescent
Sep 24
New
Oct 1
First Quarter
Oct 8
Full
Oct 15
Last Quarter

Today's Extremes

State Highs State Lows

Community

WunderPhotos

Upload Photos

1,754,865 photos uploaded!

Nearby

Snow Depth

Station Depth Elevation
No new snow has been reported.

Earthquake Activity

City Distance Mag. Time & Date
No recent earthquake activity has been reported nearby.
Minimum magnitude displayed is 2.5.

Coastal Water Temperatures

Place Temperature
No Stations Reporting

Nearby Weather Stations